createdAt,value
2019-04-22T00:01:17.110Z,4.60
2019-04-22T00:03:47.548Z,4.50
2019-04-22T00:06:30.941Z,4.50
2019-04-22T00:09:03.301Z,4.40
2019-04-22T00:11:51.347Z,4.30
2019-04-22T00:13:57.135Z,4.20
2019-04-22T00:16:34.182Z,4.10
2019-04-22T00:19:11.462Z,4.10
2019-04-22T00:21:26.169Z,4.20
2019-04-22T00:23:51.777Z,4.10
2019-04-22T00:26:24.514Z,4.00
2019-04-22T00:28:52.149Z,4.00
2019-04-22T00:31:15.469Z,3.80
2019-04-22T00:33:45.548Z,3.80
2019-04-22T00:36:16.394Z,3.90
2019-04-22T00:38:44.180Z,3.70
2019-04-22T00:41:13.472Z,3.70
2019-04-22T00:43:46.242Z,3.60
2019-04-22T00:46:05.654Z,3.50
2019-04-22T00:48:38.283Z,3.50
2019-04-22T00:51:06.136Z,3.50
2019-04-22T00:53:34.220Z,3.40
2019-04-22T00:58:39.745Z,3.40
2019-04-22T01:01:08.037Z,3.30
2019-04-22T01:03:38.598Z,3.30
2019-04-22T01:06:08.033Z,3.20
2019-04-22T01:08:35.229Z,3.20
2019-04-22T01:11:06.208Z,3.20
2019-04-22T01:13:26.180Z,3.20
2019-04-22T01:16:00.867Z,3.10
2019-04-22T01:18:22.369Z,3.00
2019-04-22T01:21:07.224Z,3.00
2019-04-22T01:23:19.185Z,2.90
2019-04-22T01:25:44.862Z,2.90
2019-04-22T01:28:10.859Z,2.80
2019-04-22T01:30:34.961Z,2.80
2019-04-22T01:33:04.688Z,2.80
2019-04-22T01:35:35.834Z,2.70
2019-04-22T01:38:07.903Z,2.60
2019-04-22T01:40:45.742Z,2.70
2019-04-22T01:43:16.773Z,2.70
2019-04-22T01:45:45.055Z,2.60
2019-04-22T01:48:12.809Z,2.60
2019-04-22T01:50:41.086Z,2.50
2019-04-22T01:55:36.958Z,2.40
2019-04-22T01:57:59.552Z,2.20
2019-04-22T02:00:36.062Z,2.30
2019-04-22T02:03:04.148Z,2.30
2019-04-22T02:05:31.470Z,2.20
2019-04-22T02:08:06.767Z,2.20
2019-04-22T02:10:34.813Z,2.10
2019-04-22T02:13:03.121Z,2.10
2019-04-22T02:15:47.803Z,2.10
2019-04-22T02:18:01.399Z,2.10
2019-04-22T02:20:29.613Z,2.00
2019-04-22T02:25:56.372Z,1.90
2019-04-22T02:28:32.609Z,1.90
2019-04-22T02:31:13.915Z,1.90
2019-04-22T02:36:20.180Z,1.90
2019-04-22T02:38:35.699Z,1.80
2019-04-22T02:41:08.809Z,1.90
2019-04-22T02:43:24.372Z,1.80
2019-04-22T02:46:07.821Z,1.80
2019-04-22T02:48:26.649Z,1.80
2019-04-22T02:50:43.810Z,1.80
2019-04-22T02:53:19.059Z,1.80
2019-04-22T02:55:41.289Z,1.90
2019-04-22T02:58:03.914Z,1.90
2019-04-22T03:00:38.943Z,1.90
2019-04-22T03:03:20.675Z,1.80
2019-04-22T03:08:06.745Z,1.60
2019-04-22T03:10:47.378Z,1.70
2019-04-22T03:13:09.010Z,1.70
2019-04-22T03:15:40.751Z,1.70
2019-04-22T03:20:37.408Z,1.80
2019-04-22T03:23:05.714Z,1.70
2019-04-22T03:27:50.574Z,1.70
2019-04-22T03:40:30.731Z,1.50
2019-04-22T03:52:41.988Z,1.70
2019-04-22T03:55:09.382Z,1.70
2019-04-22T03:57:48.939Z,1.70
2019-04-22T04:00:15.713Z,1.50
2019-04-22T04:02:38.980Z,1.50
2019-04-22T04:04:59.423Z,1.50
2019-04-22T04:09:58.238Z,1.50
2019-04-22T04:17:28.887Z,1.60
2019-04-22T04:20:16.410Z,1.70
2019-04-22T04:22:30.692Z,1.60
2019-04-22T04:27:40.811Z,1.80
2019-04-22T04:30:02.545Z,1.80
2019-04-22T04:32:26.963Z,1.90
2019-04-22T04:35:03.220Z,1.90
2019-04-22T04:37:37.848Z,2.00
2019-04-22T04:39:49.180Z,2.10
2019-04-22T04:47:11.746Z,2.20
2019-04-22T04:49:39.252Z,2.20
2019-04-22T04:54:42.023Z,2.40
2019-04-22T04:57:14.856Z,2.50
2019-04-22T05:01:52.577Z,2.70
2019-04-22T05:04:37.211Z,2.80
2019-04-22T05:06:59.617Z,2.90
2019-04-22T05:21:32.811Z,4.40
2019-04-22T05:24:09.482Z,4.80
2019-04-22T05:26:37.419Z,5.30
2019-04-22T05:29:03.831Z,5.50
2019-04-22T05:31:32.300Z,5.80
2019-04-22T05:33:56.341Z,6.20
2019-04-22T05:36:40.373Z,6.40
2019-04-22T05:38:53.599Z,6.60
2019-04-22T05:41:22.024Z,6.90
2019-04-22T05:43:50.281Z,7.00
2019-04-22T05:46:17.943Z,7.30
2019-04-22T05:48:52.238Z,7.50
2019-04-22T05:51:21.831Z,7.80
2019-04-22T05:53:40.514Z,7.80
2019-04-22T05:56:17.468Z,7.90
2019-04-22T05:58:49.535Z,7.90
2019-04-22T06:03:39.710Z,8.00
2019-04-22T06:06:05.886Z,8.20
2019-04-22T06:08:38.972Z,8.40
2019-04-22T06:11:04.298Z,8.90
2019-04-22T06:13:28.062Z,9.40
2019-04-22T06:15:52.573Z,9.90
2019-04-22T06:18:28.402Z,10.30
2019-04-22T06:21:04.030Z,10.80
2019-04-22T06:28:35.237Z,11.50
2019-04-22T06:30:57.510Z,11.50
2019-04-22T06:33:22.548Z,12.20
2019-04-22T06:35:50.393Z,12.20
2019-04-22T06:40:46.816Z,12.90
2019-04-22T06:43:29.637Z,13.00
2019-04-22T06:45:41.565Z,13.00
2019-04-22T06:50:43.394Z,13.60
2019-04-22T06:53:11.658Z,13.80
2019-04-22T06:58:04.797Z,13.70
2019-04-22T07:00:38.394Z,13.80
2019-04-22T07:03:31.715Z,14.30
2019-04-22T07:05:37.670Z,14.90
2019-04-22T07:08:12.218Z,15.00
2019-04-22T07:12:56.591Z,14.30
2019-04-22T07:15:42.375Z,13.70
2019-04-22T07:18:04.569Z,13.40
2019-04-22T07:22:51.288Z,12.50
2019-04-22T07:25:23.675Z,12.10
2019-04-22T07:27:53.844Z,11.90
2019-04-22T07:30:21.955Z,11.70
2019-04-22T07:33:04.308Z,11.50
2019-04-22T07:35:14.129Z,11.40
2019-04-22T07:37:41.872Z,11.20
2019-04-22T07:40:11.804Z,11.20
2019-04-22T07:42:36.532Z,11.20
2019-04-22T07:45:10.290Z,11.70
2019-04-22T07:47:58.844Z,12.30
2019-04-22T07:50:05.473Z,13.00
2019-04-22T07:52:34.453Z,13.30
2019-04-22T07:54:57.916Z,14.20
2019-04-22T08:00:03.071Z,14.60
2019-04-22T08:02:25.537Z,15.70
2019-04-22T08:05:07.057Z,16.20
2019-04-22T08:07:26.675Z,17.30
2019-04-22T08:12:21.685Z,17.70
2019-04-22T08:14:45.513Z,17.80
2019-04-22T08:17:41.569Z,18.40
2019-04-22T08:19:48.433Z,18.90
2019-04-22T08:22:07.214Z,19.30
2019-04-22T08:24:43.545Z,19.90
2019-04-22T08:27:11.993Z,19.80
2019-04-22T08:29:49.916Z,20.40
2019-04-22T08:32:10.428Z,20.50
2019-04-22T08:34:31.041Z,20.00
2019-04-22T08:39:34.549Z,19.30
2019-04-22T08:41:58.835Z,19.30
2019-04-22T08:44:52.227Z,18.60
2019-04-22T08:47:04.641Z,19.20
2019-04-22T08:49:21.782Z,19.40
2019-04-22T08:51:58.875Z,19.70
2019-04-22T08:54:25.951Z,19.50
2019-04-22T08:56:49.452Z,19.80
2019-04-22T08:59:22.132Z,20.20
2019-04-22T09:01:41.930Z,20.30
2019-04-22T09:04:11.732Z,19.50
2019-04-22T09:07:02.436Z,18.60
2019-04-22T09:09:11.688Z,18.30
2019-04-22T09:14:13.959Z,18.90
2019-04-22T09:16:45.949Z,18.90
2019-04-22T09:19:10.748Z,19.70
2019-04-22T09:24:05.376Z,18.70
2019-04-22T09:26:36.058Z,17.80
2019-04-22T09:29:04.973Z,17.30
2019-04-22T09:31:33.657Z,17.40
2019-04-22T09:33:57.020Z,18.40
2019-04-22T09:36:29.648Z,18.90
2019-04-22T09:38:52.972Z,19.00
2019-04-22T09:41:27.619Z,18.80
2019-04-22T09:43:53.648Z,19.10
2019-04-22T09:46:26.988Z,20.60
2019-04-22T09:48:50.429Z,21.30
2019-04-22T09:51:12.222Z,21.70
2019-04-22T09:56:10.168Z,19.90
2019-04-22T09:58:44.838Z,20.10
2019-04-22T10:03:44.586Z,20.20
2019-04-22T10:06:16.545Z,21.20
2019-04-22T10:08:52.738Z,21.20
2019-04-22T10:11:14.275Z,20.60
2019-04-22T10:13:41.004Z,21.10
2019-04-22T10:16:15.029Z,21.20
2019-04-22T10:18:33.363Z,21.20
2019-04-22T10:21:00.929Z,21.20
2019-04-22T10:23:33.041Z,22.20
2019-04-22T10:25:57.379Z,22.70
2019-04-22T10:28:32.793Z,22.60
2019-04-22T10:31:14.987Z,21.60
2019-04-22T10:33:14.829Z,21.40
2019-04-22T10:35:28.703Z,20.60
2019-04-22T10:37:54.590Z,20.40
2019-04-22T10:40:34.536Z,19.70
2019-04-22T10:43:01.570Z,19.00
2019-04-22T10:45:28.259Z,20.00
2019-04-22T10:47:56.010Z,21.70
2019-04-22T10:50:26.329Z,22.10
2019-04-22T10:52:53.041Z,22.10
2019-04-22T10:55:21.225Z,21.40
2019-04-22T10:57:48.621Z,20.70
2019-04-22T11:00:16.002Z,20.40
2019-04-22T11:02:43.723Z,20.80
2019-04-22T11:05:10.460Z,21.00
2019-04-22T11:07:44.015Z,20.80
2019-04-22T11:10:20.607Z,20.30
2019-04-22T11:12:37.206Z,20.50
2019-04-22T11:15:05.602Z,21.50
2019-04-22T11:17:33.258Z,21.70
2019-04-22T11:19:59.994Z,21.90
2019-04-22T11:22:31.637Z,21.80
2019-04-22T11:24:57.366Z,21.10
2019-04-22T11:27:23.341Z,20.60
2019-04-22T11:29:49.823Z,19.70
2019-04-22T11:32:16.166Z,19.40
2019-04-22T11:34:42.918Z,20.10
2019-04-22T11:37:10.236Z,20.60
2019-04-22T11:39:38.601Z,21.70
2019-04-22T11:42:05.085Z,22.90
2019-04-22T11:44:32.902Z,23.10
2019-04-22T11:46:59.570Z,22.20
2019-04-22T11:49:26.146Z,21.30
2019-04-22T11:51:54.126Z,20.40
2019-04-22T11:54:21.065Z,19.50
2019-04-22T11:56:47.693Z,19.30
2019-04-22T11:59:15.035Z,19.10
2019-04-22T12:01:42.882Z,19.40
2019-04-22T12:04:09.691Z,19.20
2019-04-22T12:06:37.745Z,19.20
2019-04-22T12:09:08.199Z,19.20
2019-04-22T12:11:34.636Z,19.60
2019-04-22T12:14:02.152Z,20.60
2019-04-22T12:16:29.671Z,22.30
2019-04-22T12:18:58.479Z,23.80
2019-04-22T12:21:24.574Z,24.30
2019-04-22T12:23:51.041Z,24.70
2019-04-22T12:26:20.544Z,24.20
2019-04-22T12:28:46.817Z,23.60
2019-04-22T12:31:13.614Z,23.80
2019-04-22T12:33:41.312Z,24.50
2019-04-22T12:36:10.948Z,24.30
2019-04-22T12:38:37.749Z,23.20
2019-04-22T12:41:09.600Z,22.00
2019-04-22T12:43:33.715Z,22.60
2019-04-22T12:46:00.504Z,23.00
2019-04-22T12:48:27.457Z,22.40
2019-04-22T12:50:56.456Z,21.80
2019-04-22T12:53:25.731Z,20.90
2019-04-22T12:55:53.694Z,20.70
2019-04-22T12:58:20.044Z,21.50
2019-04-22T13:00:48.362Z,21.50
2019-04-22T13:03:15.974Z,21.60
2019-04-22T13:05:43.094Z,21.40
2019-04-22T13:08:09.763Z,21.40
2019-04-22T13:10:45.689Z,20.80
2019-04-22T13:13:04.983Z,20.20
2019-04-22T13:15:32.943Z,19.80
2019-04-22T13:18:06.107Z,19.80
2019-04-22T13:20:28.241Z,20.00
2019-04-22T13:22:54.763Z,19.60
2019-04-22T13:25:24.372Z,19.30
2019-04-22T13:27:51.072Z,19.20
2019-04-22T13:30:20.802Z,18.90
2019-04-22T13:32:47.352Z,18.80
2019-04-22T13:35:15.355Z,18.50
2019-04-22T13:37:43.341Z,18.60
2019-04-22T13:40:10.923Z,18.80
2019-04-22T13:42:37.573Z,19.40
2019-04-22T13:45:09.663Z,19.60
2019-04-22T13:47:56.217Z,19.60
2019-04-22T13:50:44.300Z,20.10
2019-04-22T13:53:10.353Z,20.70
2019-04-22T13:55:41.716Z,21.60
2019-04-22T13:57:53.328Z,22.50
2019-04-22T14:00:09.555Z,23.50
2019-04-22T14:02:40.243Z,23.90
2019-04-22T14:05:08.519Z,23.40
2019-04-22T14:07:35.055Z,23.70
2019-04-22T14:10:02.655Z,22.50
2019-04-22T14:12:30.795Z,21.40
2019-04-22T14:14:58.367Z,20.80
2019-04-22T14:17:25.082Z,20.10
2019-04-22T14:19:52.696Z,19.80
2019-04-22T14:22:20.034Z,19.40
2019-04-22T14:24:46.903Z,19.10
2019-04-22T14:27:27.105Z,19.00
2019-04-22T14:29:41.931Z,19.00
2019-04-22T14:32:16.593Z,19.10
2019-04-22T14:34:36.621Z,19.30
2019-04-22T14:37:03.575Z,19.80
2019-04-22T14:39:30.432Z,20.30
2019-04-22T14:42:19.038Z,20.70
2019-04-22T14:47:22.609Z,22.00
2019-04-22T14:49:43.382Z,21.90
2019-04-22T14:52:15.341Z,21.20
2019-04-22T14:54:34.599Z,20.60
2019-04-22T14:56:48.509Z,19.80
2019-04-22T14:59:16.726Z,19.20
2019-04-22T15:01:45.570Z,19.00
2019-04-22T15:04:13.339Z,19.00
2019-04-22T15:06:40.396Z,18.80
2019-04-22T15:09:08.159Z,18.80
2019-04-22T15:11:52.534Z,18.80
2019-04-22T15:14:05.417Z,19.00
2019-04-22T15:16:46.967Z,18.80
2019-04-22T15:19:31.781Z,19.00
2019-04-22T15:21:58.830Z,19.00
2019-04-22T15:24:27.576Z,18.90
2019-04-22T15:26:56.646Z,18.80
2019-04-22T15:29:25.234Z,18.80
2019-04-22T15:31:53.376Z,18.90
2019-04-22T15:34:20.796Z,18.90
2019-04-22T15:36:48.498Z,19.00
2019-04-22T15:39:15.593Z,19.10
2019-04-22T15:41:55.592Z,19.10
2019-04-22T15:44:12.039Z,19.00
2019-04-22T15:46:39.058Z,18.90
2019-04-22T15:49:06.374Z,18.90
2019-04-22T15:51:34.354Z,18.70
2019-04-22T15:54:01.396Z,18.50
2019-04-22T15:56:28.445Z,18.20
2019-04-22T15:58:55.507Z,18.10
2019-04-22T16:01:28.058Z,18.00
2019-04-22T16:03:50.427Z,18.10
2019-04-22T16:06:17.752Z,18.00
2019-04-22T16:08:45.684Z,18.00
2019-04-22T16:11:13.823Z,17.90
2019-04-22T16:13:40.441Z,17.80
2019-04-22T16:16:07.017Z,17.50
2019-04-22T16:18:33.667Z,17.40
2019-04-22T16:21:00.325Z,17.30
2019-04-22T16:23:32.183Z,17.00
2019-04-22T16:26:18.020Z,17.00
2019-04-22T16:28:45.179Z,16.90
2019-04-22T16:31:13.351Z,16.80
2019-04-22T16:33:43.352Z,16.60
2019-04-22T16:36:09.016Z,16.60
2019-04-22T16:38:36.929Z,16.60
2019-04-22T16:41:03.742Z,16.60
2019-04-22T16:43:30.827Z,16.50
2019-04-22T16:45:57.964Z,16.50
2019-04-22T16:48:25.552Z,16.60
2019-04-22T16:50:52.719Z,16.60
2019-04-22T16:53:20.908Z,16.60
2019-04-22T16:55:48.740Z,16.60
2019-04-22T16:58:16.655Z,16.50
2019-04-22T17:00:44.865Z,16.50
2019-04-22T17:03:29.000Z,16.50
2019-04-22T17:06:14.600Z,16.50
2019-04-22T17:08:42.416Z,16.50
2019-04-22T17:11:09.693Z,16.40
2019-04-22T17:13:38.202Z,16.30
2019-04-22T17:16:06.888Z,16.30
2019-04-22T17:18:35.074Z,16.20
2019-04-22T17:21:06.646Z,16.10
2019-04-22T17:23:31.763Z,16.10
2019-04-22T17:25:58.617Z,15.90
2019-04-22T17:28:25.829Z,15.80
2019-04-22T17:30:53.882Z,15.80
2019-04-22T17:33:21.007Z,15.70
2019-04-22T17:35:50.206Z,15.70
2019-04-22T17:38:27.425Z,15.60
2019-04-22T17:41:02.517Z,15.50
2019-04-22T17:43:52.594Z,15.50
2019-04-22T17:46:12.080Z,15.40
2019-04-22T17:48:52.975Z,15.30
2019-04-22T17:51:29.864Z,15.20
2019-04-22T17:53:53.268Z,15.10
2019-04-22T17:56:20.563Z,15.20
2019-04-22T17:58:51.527Z,14.90
2019-04-22T18:01:21.971Z,14.90
2019-04-22T18:03:33.040Z,14.80
2019-04-22T18:06:00.472Z,14.80
2019-04-22T18:08:39.248Z,14.70
2019-04-22T18:11:17.087Z,14.60
2019-04-22T18:13:44.070Z,14.50
2019-04-22T18:16:16.254Z,14.50
2019-04-22T18:18:37.184Z,14.40
2019-04-22T18:21:05.065Z,14.30
2019-04-22T18:23:20.862Z,14.20
2019-04-22T18:26:01.957Z,14.20
2019-04-22T18:28:30.316Z,14.10
2019-04-22T18:30:57.063Z,14.00
2019-04-22T18:33:28.699Z,13.90
2019-04-22T18:35:58.322Z,13.90
2019-04-22T18:38:33.320Z,13.90
2019-04-22T18:40:53.687Z,13.70
2019-04-22T18:43:27.739Z,13.60
2019-04-22T18:46:12.730Z,13.50
2019-04-22T18:48:15.344Z,13.60
2019-04-22T18:51:09.967Z,13.60
2019-04-22T18:53:38.328Z,13.50
2019-04-22T18:56:13.843Z,13.50
2019-04-22T18:58:30.224Z,13.60
2019-04-22T19:00:48.252Z,13.50
2019-04-22T19:03:23.884Z,13.50
2019-04-22T19:06:21.619Z,13.50
2019-04-22T19:08:31.642Z,13.50
2019-04-22T19:11:08.399Z,13.60
2019-04-22T19:16:15.186Z,13.60
2019-04-22T19:18:34.723Z,13.60
2019-04-22T19:21:01.240Z,13.60
2019-04-22T19:23:28.573Z,13.50
2019-04-22T19:25:52.181Z,13.50
2019-04-22T19:28:29.287Z,13.40
2019-04-22T19:30:59.433Z,13.40
2019-04-22T19:33:27.341Z,13.30
2019-04-22T19:35:44.068Z,13.30
2019-04-22T19:38:10.981Z,13.30
2019-04-22T19:40:55.566Z,13.30
2019-04-22T19:43:18.765Z,13.10
2019-04-22T19:45:39.852Z,13.10
2019-04-22T19:48:21.891Z,13.00
2019-04-22T19:50:44.398Z,12.90
2019-04-22T19:53:17.843Z,12.90
2019-04-22T19:55:40.976Z,12.90
2019-04-22T19:58:13.136Z,12.80
2019-04-22T20:00:37.452Z,12.80
2019-04-22T20:03:20.430Z,12.80
2019-04-22T20:06:02.705Z,12.80
2019-04-22T20:08:31.120Z,12.90
2019-04-22T20:11:01.836Z,12.90
2019-04-22T20:13:30.837Z,12.90
2019-04-22T20:15:48.991Z,12.80
2019-04-22T20:20:58.506Z,12.80
2019-04-22T20:23:14.283Z,12.80
2019-04-22T20:25:44.915Z,12.80
2019-04-22T20:28:19.476Z,12.80
2019-04-22T20:30:46.747Z,12.70
2019-04-22T20:33:11.997Z,12.70
2019-04-22T20:35:43.551Z,12.70
2019-04-22T20:38:08.794Z,12.60
2019-04-22T20:40:41.441Z,12.50
2019-04-22T20:43:15.121Z,12.50
2019-04-22T20:45:39.968Z,12.50
2019-04-22T20:47:53.557Z,12.40
2019-04-22T20:50:36.133Z,12.40
2019-04-22T20:53:08.627Z,12.30
2019-04-22T20:55:28.086Z,12.20
2019-04-22T20:58:02.726Z,12.10
2019-04-22T21:00:23.374Z,12.00
2019-04-22T21:02:48.832Z,12.00
2019-04-22T21:05:19.678Z,11.90
2019-04-22T21:07:55.557Z,11.80
2019-04-22T21:10:18.352Z,11.70
2019-04-22T21:12:43.701Z,11.70
2019-04-22T21:15:29.916Z,11.60
2019-04-22T21:17:50.944Z,11.50
2019-04-22T21:20:26.126Z,11.50
2019-04-22T21:22:48.267Z,11.50
2019-04-22T21:25:08.840Z,11.50
2019-04-22T21:27:49.386Z,11.30
2019-04-22T21:30:11.012Z,11.30
2019-04-22T21:32:38.901Z,11.20
2019-04-22T21:35:16.266Z,11.20
2019-04-22T21:37:44.966Z,11.20
2019-04-22T21:40:00.423Z,11.00
2019-04-22T21:42:38.355Z,11.00
2019-04-22T21:44:56.715Z,11.00
2019-04-22T21:47:36.246Z,10.90
2019-04-22T21:50:11.168Z,10.80
2019-04-22T21:52:28.140Z,10.80
2019-04-22T21:54:59.489Z,10.80
2019-04-22T21:57:55.535Z,10.80
2019-04-22T22:00:17.369Z,10.80
2019-04-22T22:02:39.565Z,10.70
2019-04-22T22:05:03.192Z,10.60
2019-04-22T22:07:21.636Z,10.70
2019-04-22T22:10:04.305Z,10.70
2019-04-22T22:12:37.743Z,10.60
2019-04-22T22:15:04.072Z,10.50
2019-04-22T22:17:27.772Z,10.40
2019-04-22T22:19:52.829Z,10.30
2019-04-22T22:22:42.247Z,10.30
2019-04-22T22:24:56.479Z,10.20
2019-04-22T22:27:18.539Z,10.10
2019-04-22T22:29:57.076Z,10.10
2019-04-22T22:32:18.246Z,10.00
2019-04-22T22:34:48.848Z,10.10
2019-04-22T22:37:11.721Z,10.00
2019-04-22T22:39:36.703Z,10.00
2019-04-22T22:41:54.262Z,10.00
2019-04-22T22:44:30.270Z,9.90
2019-04-22T22:47:08.623Z,9.90
2019-04-22T22:49:45.854Z,9.80
2019-04-22T22:52:31.803Z,9.90
2019-04-22T22:54:34.201Z,9.80
2019-04-22T22:57:12.080Z,9.70
2019-04-22T22:59:33.172Z,9.70
2019-04-22T23:02:04.629Z,9.70
2019-04-22T23:04:36.532Z,9.70
2019-04-22T23:07:00.348Z,9.70
2019-04-22T23:09:27.024Z,9.50
2019-04-22T23:12:03.299Z,9.40
2019-04-22T23:14:30.076Z,9.30
2019-04-22T23:16:42.964Z,9.40
2019-04-22T23:19:02.014Z,9.40
2019-04-22T23:21:38.534Z,9.40
2019-04-22T23:24:16.169Z,9.40
2019-04-22T23:26:48.501Z,9.30
2019-04-22T23:29:12.058Z,9.20
2019-04-22T23:31:46.812Z,9.30
2019-04-22T23:34:21.085Z,9.20
2019-04-22T23:36:54.223Z,9.10
2019-04-22T23:39:38.479Z,9.10
2019-04-22T23:41:59.308Z,9.00
2019-04-22T23:46:48.423Z,9.00
2019-04-22T23:49:18.071Z,9.10
2019-04-22T23:51:58.080Z,9.10
2019-04-22T23:54:20.835Z,9.10
2019-04-22T23:56:43.539Z,9.00
2019-04-22T23:59:33.795Z,9.00
